createdAt,value
2023-02-06T00:03:25.836Z,100997.00
2023-02-06T00:08:28.724Z,100996.87
2023-02-06T00:13:36.736Z,101003.91
2023-02-06T00:18:38.692Z,101005.16
2023-02-06T00:23:41.865Z,101002.08
2023-02-06T00:28:44.767Z,100995.04
2023-02-06T00:33:47.349Z,100997.27
2023-02-06T00:38:52.522Z,100999.36
2023-02-06T00:43:55.182Z,100997.55
2023-02-06T00:48:58.948Z,100996.52
2023-02-06T00:54:01.247Z,100982.83
2023-02-06T00:59:04.026Z,100974.36
2023-02-06T01:04:07.176Z,100973.16
2023-02-06T01:09:13.341Z,100966.78
2023-02-06T01:14:15.948Z,100961.46
2023-02-06T01:19:21.483Z,100959.74
2023-02-06T01:24:26.502Z,100956.80
2023-02-06T01:29:28.810Z,100963.08
2023-02-06T01:34:46.219Z,100958.86
2023-02-06T01:39:48.686Z,100960.77
2023-02-06T01:45:20.242Z,100961.15
2023-02-06T01:50:22.929Z,100951.02
2023-02-06T01:55:24.978Z,100942.34
2023-02-06T02:00:27.290Z,100933.58
2023-02-06T02:05:29.994Z,100920.69
2023-02-06T02:10:33.363Z,100914.72
2023-02-06T02:15:49.289Z,100915.96
2023-02-06T02:21:35.287Z,100907.52
2023-02-06T02:26:56.776Z,100908.55
2023-02-06T02:32:35.858Z,100902.12
2023-02-06T02:38:03.722Z,100907.41
2023-02-06T02:43:20.369Z,100908.11
2023-02-06T02:48:40.917Z,100901.38
2023-02-06T02:53:43.227Z,100897.63
2023-02-06T02:58:50.483Z,100891.09
2023-02-06T03:03:57.589Z,100903.13
2023-02-06T03:09:26.232Z,100898.69
2023-02-06T03:14:39.313Z,100900.78
2023-02-06T03:19:52.338Z,100887.59
2023-02-06T03:24:59.077Z,100887.29
2023-02-06T03:30:03.830Z,100891.63
2023-02-06T03:35:17.802Z,100895.59
2023-02-06T03:40:20.975Z,100894.52
2023-02-06T03:45:27.185Z,100899.17
2023-02-06T03:50:31.940Z,100900.64
2023-02-06T03:55:37.133Z,100903.66
2023-02-06T04:00:41.701Z,100906.63
2023-02-06T04:05:43.622Z,100897.95
2023-02-06T04:10:45.674Z,100896.00
2023-02-06T04:15:48.018Z,100899.52
2023-02-06T04:20:53.084Z,100896.17
2023-02-06T04:25:55.023Z,100895.70
2023-02-06T04:30:57.254Z,100886.98
2023-02-06T04:35:59.340Z,100893.10
2023-02-06T04:41:03.485Z,100895.23
2023-02-06T04:46:05.855Z,100896.00
2023-02-06T04:51:08.442Z,100897.13
2023-02-06T04:56:12.193Z,100892.59
2023-02-06T05:01:16.788Z,100895.01
2023-02-06T05:06:22.573Z,100890.27
2023-02-06T05:11:26.807Z,100884.50
2023-02-06T05:16:29.063Z,100884.38
2023-02-06T05:21:31.170Z,100895.75
2023-02-06T05:26:33.610Z,100900.66
2023-02-06T05:31:36.304Z,100897.17
2023-02-06T05:36:38.903Z,100899.15
2023-02-06T05:41:40.962Z,100899.52
2023-02-06T05:46:44.207Z,100897.61
2023-02-06T05:51:47.039Z,100899.80
2023-02-06T05:56:49.032Z,100901.00
2023-02-06T06:01:51.059Z,100906.25
2023-02-06T06:06:56.657Z,100905.31
2023-02-06T06:11:58.918Z,100905.20
2023-02-06T06:17:01.816Z,100907.88
2023-02-06T06:22:06.097Z,100909.61
2023-02-06T06:27:10.676Z,100911.29
2023-02-06T06:32:13.539Z,100909.33
2023-02-06T06:37:15.723Z,100908.19
2023-02-06T06:42:18.299Z,100908.17
2023-02-06T06:47:20.474Z,100902.77
2023-02-06T06:52:25.556Z,100906.89
2023-02-06T06:57:32.690Z,100916.23
2023-02-06T07:02:37.686Z,100911.84
2023-02-06T07:07:39.847Z,100913.80
2023-02-06T07:12:42.041Z,100915.84
2023-02-06T07:17:44.022Z,100912.42
2023-02-06T07:22:47.904Z,100911.22
2023-02-06T07:27:49.941Z,100910.30
2023-02-06T07:32:52.079Z,100909.88
2023-02-06T07:37:54.228Z,100908.73
2023-02-06T07:42:56.890Z,100914.16
2023-02-06T07:48:04.350Z,100912.39
2023-02-06T07:53:07.794Z,100912.09
2023-02-06T07:58:13.149Z,100913.13
2023-02-06T08:03:18.077Z,100908.02
2023-02-06T08:08:25.197Z,100906.80
2023-02-06T08:13:28.390Z,100903.31
2023-02-06T08:18:30.356Z,100905.80
2023-02-06T08:23:32.980Z,100912.39
2023-02-06T08:28:35.930Z,100913.67
2023-02-06T08:33:38.382Z,100928.41
2023-02-06T08:38:42.348Z,100927.78
2023-02-06T08:43:48.870Z,100926.20
2023-02-06T08:49:17.363Z,100925.36
2023-02-06T08:54:22.079Z,100921.36
2023-02-06T08:59:24.574Z,100917.80
2023-02-06T09:04:31.793Z,100919.48
2023-02-06T09:09:37.201Z,100919.84
2023-02-06T09:14:39.712Z,100917.98
2023-02-06T09:19:42.190Z,100920.91
2023-02-06T09:24:47.194Z,100926.85
2023-02-06T09:29:52.654Z,100930.38
2023-02-06T09:35:01.237Z,100934.36
2023-02-06T09:40:06.364Z,100932.12
2023-02-06T09:45:26.294Z,100935.54
2023-02-06T09:51:06.174Z,100931.40
2023-02-06T09:56:24.491Z,100931.92
2023-02-06T10:01:38.760Z,100935.13
2023-02-06T10:06:54.001Z,100935.52
2023-02-06T10:12:18.203Z,100939.56
2023-02-06T10:17:26.063Z,100931.77
2023-02-06T10:22:54.872Z,100931.23
2023-02-06T10:28:06.693Z,100933.41
2023-02-06T10:33:26.187Z,100928.17
2023-02-06T10:38:55.902Z,100919.17
2023-02-06T10:44:16.984Z,100912.71
2023-02-06T10:49:40.862Z,100907.12
2023-02-06T10:54:52.121Z,100901.83
2023-02-06T10:59:59.525Z,100899.20
2023-02-06T11:05:09.846Z,100894.71
2023-02-06T11:10:18.301Z,100893.08
2023-02-06T11:15:46.949Z,100885.77
2023-02-06T11:20:51.319Z,100889.75
2023-02-06T11:26:19.725Z,100888.55
2023-02-06T11:31:45.688Z,100887.31
2023-02-06T11:36:52.949Z,100886.39
2023-02-06T11:42:03.585Z,100890.38
2023-02-06T11:47:28.575Z,100877.41
2023-02-06T11:52:34.480Z,100873.40
2023-02-06T11:57:36.318Z,100873.45
2023-02-06T12:02:51.168Z,100868.73
2023-02-06T12:08:05.376Z,100874.36
2023-02-06T12:13:28.728Z,100876.04
2023-02-06T12:18:39.728Z,100873.83
2023-02-06T12:23:56.308Z,100871.98
2023-02-06T12:29:16.946Z,100873.64
2023-02-06T12:34:24.568Z,100870.42
2023-02-06T12:39:32.633Z,100867.30
2023-02-06T12:44:47.125Z,100868.87
2023-02-06T12:50:34.763Z,100873.84
2023-02-06T12:55:45.238Z,100874.78
2023-02-06T13:01:01.379Z,100873.09
2023-02-06T13:06:21.216Z,100870.73
2023-02-06T13:11:28.838Z,100880.27
2023-02-06T13:17:21.492Z,100885.11
2023-02-06T13:22:45.083Z,100889.27
2023-02-06T13:28:14.524Z,100892.55
2023-02-06T13:33:43.924Z,100896.77
2023-02-06T13:39:46.533Z,100891.02
2023-02-06T13:44:55.020Z,100872.36
2023-02-06T13:50:53.790Z,100870.46
2023-02-06T13:56:39.349Z,100878.70
2023-02-06T14:01:53.556Z,100888.58
2023-02-06T14:07:21.962Z,100892.84
2023-02-06T14:13:16.753Z,100895.37
2023-02-06T14:18:40.491Z,100895.30
2023-02-06T14:24:14.146Z,100899.81
2023-02-06T14:30:02.586Z,100900.56
2023-02-06T14:35:25.125Z,100904.75
2023-02-06T14:40:31.242Z,100908.78
2023-02-06T14:46:06.258Z,100910.04
2023-02-06T14:51:39.491Z,100906.66
2023-02-06T14:56:47.966Z,100910.63
2023-02-06T15:01:56.839Z,100916.41
2023-02-06T15:07:36.253Z,100917.69
2023-02-06T15:12:39.033Z,100919.80
2023-02-06T15:17:55.187Z,100923.81
2023-02-06T15:23:17.227Z,100928.48
2023-02-06T15:28:25.720Z,100931.75
2023-02-06T15:33:32.466Z,100933.23
2023-02-06T15:38:34.946Z,100934.34
2023-02-06T15:43:46.965Z,100930.14
2023-02-06T15:48:53.872Z,100934.77
2023-02-06T15:54:22.845Z,100947.02
2023-02-06T15:59:26.780Z,100955.98
2023-02-06T16:04:39.741Z,100958.05
2023-02-06T16:09:53.645Z,100963.94
2023-02-06T16:15:00.544Z,100958.86
2023-02-06T16:20:26.947Z,100957.56
2023-02-06T16:25:31.500Z,100956.86
2023-02-06T16:30:36.307Z,100955.52
2023-02-06T16:35:39.079Z,100960.46
2023-02-06T16:40:41.615Z,100967.98
2023-02-06T16:45:43.485Z,100982.44
2023-02-06T16:50:47.537Z,100989.67
2023-02-06T16:55:50.472Z,100990.70
2023-02-06T17:00:52.884Z,100997.14
2023-02-06T17:05:54.953Z,101011.48
2023-02-06T17:10:56.774Z,101021.36
2023-02-06T17:15:58.847Z,101025.89
2023-02-06T17:21:00.849Z,101023.04
2023-02-06T17:26:02.694Z,101019.44
2023-02-06T17:31:04.665Z,101016.92
2023-02-06T17:36:11.415Z,101014.07
2023-02-06T17:41:13.570Z,101013.52
2023-02-06T17:46:16.946Z,101023.16
2023-02-06T17:51:18.803Z,101020.71
2023-02-06T17:56:21.001Z,101018.95
2023-02-06T18:01:24.086Z,101022.23
2023-02-06T18:06:26.700Z,101026.02
2023-02-06T18:11:29.042Z,101034.59
2023-02-06T18:16:31.998Z,101034.23
2023-02-06T18:21:33.837Z,101041.42
2023-02-06T18:26:35.917Z,101047.02
2023-02-06T18:31:37.804Z,101050.44
2023-02-06T18:36:40.056Z,101051.40
2023-02-06T18:42:00.904Z,101051.17
2023-02-06T18:47:02.658Z,101054.38
2023-02-06T18:52:05.112Z,101057.22
2023-02-06T18:57:07.350Z,101052.69
2023-02-06T19:02:11.971Z,101044.60
2023-02-06T19:07:13.884Z,101032.36
2023-02-06T19:12:15.690Z,101034.11
2023-02-06T19:17:17.532Z,101034.13
2023-02-06T19:22:19.649Z,101040.09
2023-02-06T19:27:22.168Z,101042.10
2023-02-06T19:32:26.361Z,101042.02
2023-02-06T19:37:28.152Z,101051.39
2023-02-06T19:42:30.044Z,101048.11
2023-02-06T19:47:32.182Z,101050.61
2023-02-06T19:52:35.532Z,101058.14
2023-02-06T19:57:39.592Z,101065.08
2023-02-06T20:02:41.986Z,101061.44
2023-02-06T20:07:44.115Z,101051.73
2023-02-06T20:12:47.012Z,101051.98
2023-02-06T20:17:51.277Z,101056.04
2023-02-06T20:22:53.291Z,101065.70
2023-02-06T20:27:55.116Z,101069.70
2023-02-06T20:32:57.330Z,101090.69
2023-02-06T20:37:59.370Z,101102.39
2023-02-06T20:43:01.256Z,101108.49
2023-02-06T20:48:03.346Z,101110.44
2023-02-06T20:53:06.079Z,101117.86
2023-02-06T20:58:10.678Z,101120.26
2023-02-06T21:03:13.154Z,101131.39
2023-02-06T21:08:14.954Z,101138.88
2023-02-06T21:13:17.809Z,101134.62
2023-02-06T21:18:20.402Z,101139.84
2023-02-06T21:23:24.228Z,101137.34
2023-02-06T21:28:26.475Z,101140.38
2023-02-06T21:33:28.626Z,101144.64
2023-02-06T21:38:30.631Z,101154.55
2023-02-06T21:43:32.944Z,101157.31
2023-02-06T21:48:35.975Z,101170.55
2023-02-06T21:53:38.695Z,101182.98
2023-02-06T21:58:40.655Z,101178.77
2023-02-06T22:03:44.623Z,101189.20
2023-02-06T22:08:51.733Z,101202.20
2023-02-06T22:14:01.395Z,101213.25
2023-02-06T22:19:04.394Z,101221.17
2023-02-06T22:24:07.779Z,101217.98
2023-02-06T22:29:15.993Z,101221.98
2023-02-06T22:34:20.811Z,101225.98
2023-02-06T22:39:22.864Z,101225.84
2023-02-06T22:44:24.727Z,101220.24
2023-02-06T22:49:26.506Z,101201.13
2023-02-06T22:54:28.369Z,101199.14
2023-02-06T22:59:30.265Z,101197.86
2023-02-06T23:04:36.162Z,101202.90
2023-02-06T23:09:38.931Z,101198.98
2023-02-06T23:14:40.729Z,101181.20
2023-02-06T23:19:42.514Z,101174.05
2023-02-06T23:24:44.417Z,101174.13
2023-02-06T23:29:46.782Z,101173.17
2023-02-06T23:34:48.648Z,101172.58
2023-02-06T23:39:50.537Z,101171.05
2023-02-06T23:44:52.288Z,101164.11
2023-02-06T23:49:54.115Z,101160.40
2023-02-06T23:54:55.887Z,101144.21
2023-02-06T23:59:57.724Z,101168.00
